Time;durP1;ratioP1;P1;durP2;ratioP2;P2;SDS_P1;SDS_P2;PMS_P1;PMS_P2;Temp;Humidity;BMP_temperature;BMP_pressure;BME280_temperature;BME280_humidity;BME280_pressure;Samples;Min_cycle;Max_cycle;Signal;HPM_P1;HPM_P2
2022/07/03 00:02:24;;;;;;;17.95;5.37;;;;;;;14.06;65.37;100546.37;1727431;82;21186;-80
2022/07/03 00:05:31;;;;;;;14.05;5.25;;;;;;;14.04;65.58;100540.22;1750340;82;21200;-80
2022/07/03 00:08:36;;;;;;;12.25;5.25;;;;;;;14.04;65.82;100534.72;1750192;82;21204;-80
2022/07/03 00:11:43;;;;;;;13.70;5.28;;;;;;;14.04;66.09;100538.84;1751602;82;21188;-80
2022/07/03 00:14:50;;;;;;;12.50;5.75;;;;;;;14.03;66.17;100538.52;1751573;82;21192;-80
2022/07/03 00:17:56;;;;;;;17.60;6.20;;;;;;;14.02;66.21;100538.20;1751621;82;21189;-79
2022/07/03 00:21:15;;;;;;;17.52;6.12;;;;;;;14.00;66.36;100540.27;1751565;82;21227;-81
2022/07/03 00:24:31;;;;;;;18.00;6.67;;;;;;;13.99;66.56;100534.98;1751525;82;21165;-80
2022/07/03 00:27:37;;;;;;;19.05;7.15;;;;;;;13.95;66.72;100524.87;1751491;82;21186;-80
2022/07/03 00:30:43;;;;;;;21.10;7.15;;;;;;;13.92;66.96;100533.50;1750200;82;21260;-80
2022/07/03 00:33:50;;;;;;;12.37;6.33;;;;;;;13.91;67.14;100524.08;1750114;82;21169;-80
2022/07/03 00:36:57;;;;;;;16.27;7.17;;;;;;;13.89;67.38;100520.69;1748979;82;21276;-80
2022/07/03 00:40:03;;;;;;;24.00;7.78;;;;;;;13.87;67.62;100529.10;1751593;82;21255;-80
2022/07/03 00:43:10;;;;;;;20.48;8.65;;;;;;;13.87;67.72;100518.63;1751528;82;21240;-80
2022/07/03 00:46:14;;;;;;;11.97;7.20;;;;;;;13.89;67.86;100518.78;1750897;82;21533;-80
2022/07/03 00:49:20;;;;;;;21.02;8.13;;;;;;;13.92;67.84;100519.75;1751547;82;21180;-80
2022/07/03 00:52:28;;;;;;;26.20;7.28;;;;;;;13.92;67.91;100514.25;1751743;82;21188;-80
2022/07/03 00:55:33;;;;;;;19.30;7.80;;;;;;;13.92;67.94;100512.03;1751410;82;21220;-80
2022/07/03 00:58:40;;;;;;;23.65;6.80;;;;;;;13.93;67.98;100512.38;1750865;82;21236;-80
2022/07/03 01:01:46;;;;;;;18.35;7.78;;;;;;;13.90;68.04;100508.11;1750744;82;21224;-80
2022/07/03 01:05:31;;;;;;;15.30;7.30;;;;;;;13.90;68.13;100517.73;1751284;82;21236;-80
2022/07/03 01:08:59;;;;;;;15.60;7.85;;;;;;;13.87;68.35;100511.76;1751446;82;21177;-80
2022/07/03 01:12:10;;;;;;;29.75;7.67;;;;;;;13.83;68.52;100514.03;1751528;82;21176;-80
2022/07/03 01:15:38;;;;;;;27.48;8.05;;;;;;;13.79;68.74;100514.12;1751438;82;21217;-80
2022/07/03 01:18:52;;;;;;;18.07;7.50;;;;;;;13.76;68.87;100510.36;1751500;82;21216;-80
2022/07/03 01:22:34;;;;;;;18.25;8.05;;;;;;;13.72;68.99;100514.54;1750428;82;21188;-80
2022/07/03 01:25:56;;;;;;;19.25;8.03;;;;;;;13.67;69.03;100518.39;1751672;82;21185;-80
2022/07/03 01:29:02;;;;;;;16.05;7.10;;;;;;;13.62;69.12;100512.09;1751519;82;21197;-80
2022/07/03 01:32:08;;;;;;;16.05;7.20;;;;;;;13.59;69.24;100512.46;1750515;82;21220;-80
2022/07/03 01:35:14;;;;;;;20.12;7.20;;;;;;;13.57;69.36;100506.84;1750047;82;21197;-80
2022/07/03 01:38:22;;;;;;;12.93;7.40;;;;;;;13.55;69.67;100506.52;1753095;81;21279;-80
2022/07/03 01:41:29;;;;;;;17.27;8.20;;;;;;;13.57;69.97;100520.58;1757257;81;21224;-81
2022/07/03 01:44:28;;;;;;;24.07;7.42;;;;;;;13.55;70.23;100519.41;1756876;81;21303;-80
2022/07/03 01:47:20;;;;;;;23.52;7.72;;;;;;;13.51;70.77;100509.31;1756404;81;21216;-80
2022/07/03 01:50:27;;;;;;;17.35;9.08;;;;;;;13.50;71.12;100510.36;1757332;81;21204;-80
2022/07/03 01:53:38;;;;;;;15.13;6.70;;;;;;;13.50;71.32;100517.23;1757394;81;22588;-80
2022/07/03 01:56:45;;;;;;;13.93;6.87;;;;;;;13.51;71.53;100523.05;1755685;81;21224;-80
2022/07/03 01:59:51;;;;;;;18.90;7.12;;;;;;;13.51;71.78;100516.19;1757039;81;21200;-80
2022/07/03 02:03:01;;;;;;;13.38;6.17;;;;;;;13.65;71.88;100510.87;1756359;81;21529;-80
2022/07/03 02:06:17;;;;;;;13.55;5.80;;;;;;;14.00;71.38;100515.52;1757063;81;21754;-80
2022/07/03 02:09:21;;;;;;;12.80;5.33;;;;;;;14.48;70.18;100513.09;1755542;81;21243;-81
2022/07/03 02:12:27;;;;;;;11.83;5.20;;;;;;;15.05;68.41;100507.97;1757118;81;21200;-82
2022/07/03 02:15:40;;;;;;;18.35;5.55;;;;;;;15.61;66.65;100500.15;1757113;81;21779;-82
2022/07/03 02:18:46;;;;;;;14.10;5.65;;;;;;;16.15;64.67;100497.12;1755981;81;21271;-81
2022/07/03 02:21:58;;;;;;;15.00;5.70;;;;;;;16.65;62.77;100493.46;1755687;81;22467;-81
2022/07/03 02:25:11;;;;;;;13.32;5.87;;;;;;;17.06;61.14;100494.13;1757198;81;21234;-80
2022/07/03 02:28:32;;;;;;;16.60;5.50;;;;;;;17.49;59.67;100496.91;1756017;81;21193;-81
2022/07/03 02:31:43;;;;;;;10.58;4.60;;;;;;;17.91;57.88;100492.74;1755811;81;21196;-81
2022/07/03 02:34:51;;;;;;;;;;;;;;;18.33;56.49;100491.77;1759934;81;21200;-81
2022/07/03 02:38:02;;;;;;;11.97;4.97;;;;;;;18.80;54.92;100490.92;1756247;81;20240;-81
2022/07/03 02:41:29;;;;;;;9.58;4.95;;;;;;;19.22;53.62;100494.80;1750266;81;21811;-81
2022/07/03 02:44:54;;;;;;;16.57;4.95;;;;;;;19.65;51.94;100495.33;1749994;82;21192;-81
2022/07/03 02:48:17;;;;;;;9.68;4.90;;;;;;;20.04;50.66;100494.00;1750480;82;21474;-81
2022/07/03 02:51:27;;;;;;;17.10;5.28;;;;;;;20.42;49.43;100498.37;1751093;82;21184;-81
2022/07/03 02:54:32;;;;;;;12.98;4.28;;;;;;;20.78;48.29;100499.33;1752352;82;21169;-81
2022/07/03 02:57:47;;;;;;;20.35;4.35;;;;;;;21.09;47.45;100501.80;1750708;82;21212;-81
2022/07/03 03:01:16;;;;;;;14.45;4.45;;;;;;;21.41;46.55;100501.47;1751287;82;21295;-81
2022/07/03 03:04:39;;;;;;;17.40;4.83;;;;;;;21.65;45.96;100505.07;1750313;82;21224;-81
2022/07/03 03:08:10;;;;;;;15.15;4.35;;;;;;;21.99;45.20;100507.46;1751108;82;21189;-81
2022/07/03 03:11:32;;;;;;;7.15;4.55;;;;;;;22.28;44.21;100504.72;1751470;82;21287;-81
2022/07/03 03:14:49;;;;;;;14.10;4.30;;;;;;;22.40;43.89;100505.53;1751639;82;21319;-81
2022/07/03 03:17:57;;;;;;;11.38;4.25;;;;;;;22.57;43.54;100507.78;1751011;82;21229;-81
2022/07/03 03:21:06;;;;;;;12.55;4.17;;;;;;;22.71;43.36;100509.16;1751524;82;21247;-81
2022/07/03 03:24:13;;;;;;;;;;;;;;;22.78;43.12;100506.22;1753995;82;21790;-81
2022/07/03 03:27:18;;;;;;;14.33;4.78;;;;;;;22.76;43.14;100500.03;1751397;82;20216;-80
2022/07/03 03:30:24;;;;;;;14.70;4.67;;;;;;;22.70;43.23;100503.29;1751480;82;21192;-81
2022/07/03 03:33:30;;;;;;;8.78;4.60;;;;;;;22.67;43.33;100502.94;1751323;82;21787;-81
2022/07/03 03:36:38;;;;;;;17.00;5.33;;;;;;;22.69;43.24;100501.61;1750025;82;21192;-81
2022/07/03 03:39:45;;;;;;;9.05;4.65;;;;;;;22.71;43.17;100495.77;1741390;82;21188;-81
2022/07/03 03:42:51;;;;;;;11.43;4.65;;;;;;;22.79;43.11;100501.48;1732407;82;21165;-80
2022/07/03 03:45:57;;;;;;;10.18;4.58;;;;;;;22.83;42.99;100495.16;1730541;82;21212;-81
2022/07/03 03:49:03;;;;;;;15.03;4.70;;;;;;;22.92;42.98;100501.20;1733966;82;22421;-81
2022/07/03 03:52:10;;;;;;;16.17;5.35;;;;;;;23.02;42.83;100504.15;1708681;82;21177;-81
2022/07/03 03:55:15;;;;;;;14.70;4.60;;;;;;;23.13;42.87;100508.78;1726719;82;21228;-81
2022/07/03 03:58:23;;;;;;;16.80;4.85;;;;;;;23.29;42.54;100500.12;1736897;81;21204;-81
2022/07/03 04:01:29;;;;;;;16.32;4.25;;;;;;;23.35;42.35;100499.64;1735988;82;21537;-81
2022/07/03 04:04:35;;;;;;;8.28;4.28;;;;;;;23.40;42.31;100496.92;1728378;82;21274;-81
2022/07/03 04:07:35;;;;;;;8.20;4.42;;;;;;;23.44;42.45;100499.50;1721702;83;21735;-81
2022/07/03 04:10:41;;;;;;;10.45;4.30;;;;;;;23.46;42.34;100498.67;1720815;83;21828;-81
2022/07/03 04:13:47;;;;;;;14.58;4.78;;;;;;;23.45;42.56;100499.23;1720809;83;21212;-81
2022/07/03 04:16:52;;;;;;;9.58;4.78;;;;;;;23.42;42.64;100500.29;1720857;83;21830;-81
2022/07/03 04:19:58;;;;;;;19.20;4.12;;;;;;;23.34;42.42;100502.98;1719461;83;21211;-82
2022/07/03 04:23:03;;;;;;;9.28;4.50;;;;;;;23.24;42.59;100500.56;1720711;83;21195;-81
2022/07/03 04:26:16;;;;;;;13.38;3.92;;;;;;;23.11;42.90;100499.84;1720706;83;21196;-81
2022/07/03 04:29:21;;;;;;;11.90;4.17;;;;;;;23.07;42.92;100503.39;1719987;83;21188;-81
2022/07/03 04:32:27;;;;;;;10.85;3.58;;;;;;;22.92;43.25;100498.41;1721112;83;21196;-81
2022/07/03 04:35:32;;;;;;;9.33;3.80;;;;;;;22.86;43.80;100495.19;1719845;83;21231;-81
2022/07/03 04:38:39;;;;;;;13.98;4.03;;;;;;;22.83;44.16;100486.79;1745765;81;21811;-81
2022/07/03 04:41:44;;;;;;;7.55;3.90;;;;;;;22.83;44.18;100494.31;1725635;82;21252;-81
2022/07/03 04:44:49;;;;;;;6.62;3.30;;;;;;;22.82;44.56;100493.99;1702068;83;21235;-81
2022/07/03 04:47:55;;;;;;;15.78;4.00;;;;;;;22.89;44.72;100494.16;1754886;81;21207;-81
2022/07/03 04:51:01;;;;;;;7.33;3.55;;;;;;;22.91;44.39;100496.17;1759374;81;21203;-81
2022/07/03 04:54:06;;;;;;;7.25;3.20;;;;;;;22.98;44.25;100493.20;1760210;81;21183;-81
2022/07/03 04:57:12;;;;;;;9.85;3.62;;;;;;;23.03;44.51;100491.05;1728829;83;21203;-81
2022/07/03 05:00:18;;;;;;;8.95;3.37;;;;;;;23.11;44.46;100498.44;1743403;82;21198;-81
2022/07/03 05:03:24;;;;;;;6.25;3.08;;;;;;;23.19;44.14;100491.02;1750383;82;21182;-81
2022/07/03 05:06:29;;;;;;;14.45;3.02;;;;;;;23.25;43.82;100496.70;1749438;82;21230;-81
2022/07/03 05:09:36;;;;;;;9.10;3.42;;;;;;;23.33;43.82;100487.87;1737147;81;21247;-81
2022/07/03 05:12:43;;;;;;;4.22;2.67;;;;;;;23.48;43.65;100500.68;1754129;81;21795;-81
2022/07/03 05:15:50;;;;;;;7.78;3.08;;;;;;;23.58;43.64;100499.98;1755023;81;21193;-81
2022/07/03 05:18:56;;;;;;;4.75;2.80;;;;;;;23.73;42.86;100492.39;1750329;82;21794;-81
2022/07/03 05:22:01;;;;;;;15.88;3.17;;;;;;;23.87;42.32;100495.93;1749167;82;21225;-81
2022/07/03 05:25:07;;;;;;;7.42;2.95;;;;;;;24.00;41.92;100496.10;1748885;82;21189;-81
2022/07/03 05:28:14;;;;;;;7.10;2.52;;;;;;;24.10;41.72;100496.22;1750398;82;21185;-81
2022/07/03 05:31:22;;;;;;;8.83;2.83;;;;;;;24.26;41.65;100494.44;1762338;81;21184;-81
2022/07/03 05:34:23;;;;;;;6.95;3.02;;;;;;;24.38;40.90;100496.57;1756550;81;21233;-81
2022/07/03 05:37:28;;;;;;;4.12;2.45;;;;;;;24.49;40.71;100494.72;1760204;81;21197;-81
2022/07/03 05:40:33;;;;;;;7.25;2.80;;;;;;;24.56;40.28;100498.16;1758795;81;21213;-81
2022/07/03 05:43:39;;;;;;;7.33;2.98;;;;;;;24.64;40.45;100501.01;1759613;80;21221;-81
2022/07/03 05:46:45;;;;;;;13.50;2.92;;;;;;;24.66;39.89;100503.84;1739201;82;21244;-81
2022/07/03 05:49:51;;;;;;;6.12;2.60;;;;;;;24.69;39.29;100499.10;1771873;80;21803;-79
2022/07/03 05:52:58;;;;;;;6.65;2.60;;;;;;;24.71;39.34;100494.66;1759259;81;21341;-81
2022/07/03 05:56:03;;;;;;;3.52;1.90;;;;;;;24.79;39.10;100491.91;1759121;81;21201;-81
2022/07/03 05:59:09;;;;;;;6.92;2.02;;;;;;;24.93;37.51;100484.77;1755799;81;21338;-81
2022/07/03 06:02:14;;;;;;;7.37;2.40;;;;;;;24.99;37.05;100488.75;1758993;81;21196;-81
2022/07/03 06:05:21;;;;;;;3.75;1.95;;;;;;;25.08;36.41;100496.13;1758993;81;21739;-81
2022/07/03 06:08:30;;;;;;;9.40;2.33;;;;;;;25.11;35.71;100498.94;1756857;81;21203;-81
2022/07/03 06:11:38;;;;;;;4.12;2.33;;;;;;;25.13;36.27;100488.33;1765366;80;21189;-81
2022/07/03 06:14:45;;;;;;;4.70;2.50;;;;;;;25.20;36.17;100494.53;1747599;82;21879;-81
2022/07/03 06:17:51;;;;;;;6.95;2.20;;;;;;;25.28;35.29;100489.84;1742030;82;21193;-81
2022/07/03 06:20:57;;;;;;;4.42;1.90;;;;;;;25.29;36.03;100483.12;1753233;82;21232;-81
2022/07/03 06:24:04;;;;;;;5.70;1.95;;;;;;;25.35;35.31;100478.39;1754155;82;21192;-80
2022/07/03 06:27:10;;;;;;;8.65;2.02;;;;;;;25.35;34.93;100480.63;1753973;82;21165;-81
2022/07/03 06:30:09;;;;;;;8.68;2.50;;;;;;;25.31;34.59;100480.87;1750548;82;21203;-81
2022/07/03 06:33:15;;;;;;;3.98;2.05;;;;;;;25.27;35.16;100483.12;1753160;82;21193;-81
2022/07/03 06:36:21;;;;;;;7.12;2.20;;;;;;;25.31;35.39;100483.67;1729358;82;21227;-80
2022/07/03 06:39:27;;;;;;;4.30;2.00;;;;;;;25.37;35.85;100480.38;1752628;82;21192;-81
2022/07/03 06:42:33;;;;;;;6.00;2.20;;;;;;;25.49;35.43;100477.63;1753865;82;21193;-81
2022/07/03 06:45:40;;;;;;;7.97;2.33;;;;;;;25.55;35.33;100484.66;1743768;82;21232;-81
2022/07/03 06:48:45;;;;;;;2.95;1.90;;;;;;;25.55;35.10;100489.73;1742342;82;21205;-80
2022/07/03 06:51:51;;;;;;;9.50;2.10;;;;;;;25.62;34.81;100479.67;1741455;82;21284;-81
2022/07/03 06:54:58;;;;;;;2.17;1.98;;;;;;;25.64;35.12;100483.91;1741788;82;21203;-81
2022/07/03 06:58:03;;;;;;;4.50;1.98;;;;;;;25.69;35.58;100481.13;1712656;83;21232;-81
2022/07/03 07:01:03;;;;;;;4.20;2.33;;;;;;;25.73;35.71;100480.00;1712456;83;21296;-81
2022/07/03 07:04:08;;;;;;;11.15;2.50;;;;;;;25.78;35.82;100475.02;1715423;82;21209;-81
2022/07/03 07:07:15;;;;;;;5.55;2.02;;;;;;;25.85;35.41;100477.02;1781545;79;21216;-80
2022/07/03 07:10:20;;;;;;;5.83;2.27;;;;;;;25.89;35.25;100473.40;1802931;78;21233;-80
2022/07/03 07:13:27;;;;;;;4.67;2.10;;;;;;;25.84;35.31;100476.18;1801427;79;21800;-81
2022/07/03 07:16:33;;;;;;;3.40;1.60;;;;;;;25.81;35.11;100469.72;1764762;81;21794;-81
2022/07/03 07:19:39;;;;;;;2.67;1.85;;;;;;;25.77;34.98;100465.77;1801074;79;21386;-80
2022/07/03 07:22:45;;;;;;;8.00;1.87;;;;;;;25.73;34.74;100462.63;1799979;79;21193;-81
2022/07/03 07:25:52;;;;;;;11.08;2.20;;;;;;;25.69;34.74;100467.13;1801307;79;21847;-80
2022/07/03 07:29:02;;;;;;;2.98;1.70;;;;;;;25.66;35.18;100464.02;1766179;81;21241;-80
2022/07/03 07:32:02;;;;;;;6.50;1.98;;;;;;;25.70;34.68;100459.00;1763003;81;21201;-80
2022/07/03 07:35:09;;;;;;;7.50;2.20;;;;;;;25.77;35.23;100456.52;1798911;79;21616;-81
2022/07/03 07:38:13;;;;;;;6.67;1.80;;;;;;;25.84;34.24;100457.97;1749721;81;21260;-81
2022/07/03 07:41:18;;;;;;;4.40;1.90;;;;;;;25.84;34.15;100465.54;1801765;79;21217;-80
2022/07/03 07:44:24;;;;;;;4.60;1.90;;;;;;;25.87;34.84;100456.00;1762416;81;21177;-80
2022/07/03 07:47:30;;;;;;;7.08;1.87;;;;;;;25.90;34.92;100457.42;1778737;79;21173;-81
2022/07/03 07:50:36;;;;;;;6.28;1.80;;;;;;;25.85;34.88;100456.01;1798256;78;21482;-81
2022/07/03 07:53:42;;;;;;;5.35;1.90;;;;;;;25.86;34.91;100453.48;1799572;78;21256;-80
2022/07/03 07:56:50;;;;;;;7.30;1.60;;;;;;;25.97;34.71;100447.66;1788812;79;21189;-80
2022/07/03 07:59:56;;;;;;;7.55;1.67;;;;;;;26.06;34.09;100449.91;1783447;79;21185;-81
2022/07/03 08:06:28;;;;;;;3.22;1.72;;;;;;;26.10;33.97;100460.84;1778102;80;21173;-80
2022/07/03 08:09:34;;;;;;;8.10;2.22;;;;;;;26.09;33.15;100450.20;1778253;80;21260;-80
2022/07/03 08:12:40;;;;;;;3.50;1.72;;;;;;;26.15;33.67;100439.84;1778620;80;21165;-80
2022/07/03 08:15:47;;;;;;;2.95;1.98;;;;;;;26.18;33.68;100434.53;1782210;79;21296;-80
2022/07/03 08:18:53;;;;;;;3.98;1.70;;;;;;;26.28;33.95;100442.68;1776613;81;21243;-80
2022/07/03 08:21:58;;;;;;;4.90;1.85;;;;;;;26.33;33.47;100444.93;1803289;79;21204;-80
2022/07/03 08:25:04;;;;;;;2.20;1.70;;;;;;;26.46;33.16;100459.02;1804547;79;21197;-80
2022/07/03 08:28:09;;;;;;;3.90;2.00;;;;;;;26.50;33.14;100446.13;1808254;79;21746;-80
2022/07/03 08:31:15;;;;;;;3.85;1.62;;;;;;;26.43;33.53;100442.73;1808170;79;21227;-81
2022/07/03 08:34:21;;;;;;;2.72;1.70;;;;;;;26.33;32.84;100435.67;1808210;79;21165;-80
2022/07/03 08:37:28;;;;;;;4.50;1.62;;;;;;;26.27;32.73;100440.44;1808317;79;21176;-80
2022/07/03 08:40:34;;;;;;;11.22;2.00;;;;;;;26.28;33.58;100439.31;1806701;79;21751;-80
2022/07/03 08:43:39;;;;;;;4.20;1.80;;;;;;;26.28;32.32;100432.87;1807225;79;21209;-81
2022/07/03 08:46:45;;;;;;;2.10;1.85;;;;;;;26.22;31.97;100434.27;1805147;79;21192;-81
2022/07/03 08:49:50;;;;;;;2.52;1.75;;;;;;;26.25;32.03;100436.52;1802633;79;21172;-81
2022/07/03 08:52:56;;;;;;;2.60;1.50;;;;;;;26.32;32.49;100426.43;1801829;79;21192;-81
2022/07/03 08:56:03;;;;;;;7.12;2.05;;;;;;;26.49;31.93;100426.22;1802692;79;21170;-81
2022/07/03 08:59:08;;;;;;;4.12;1.65;;;;;;;26.57;30.27;100435.45;1801073;79;21247;-81
2022/07/03 09:02:13;;;;;;;2.77;1.70;;;;;;;26.53;29.90;100432.08;1802588;79;21177;-81
2022/07/03 09:05:20;;;;;;;7.72;1.82;;;;;;;26.42;30.06;100427.84;1792691;79;21493;-81
2022/07/03 09:08:27;;;;;;;5.53;2.15;;;;;;;26.45;32.12;100432.94;1779197;79;21178;-81
2022/07/03 09:11:33;;;;;;;6.53;1.65;;;;;;;26.45;31.96;100436.30;1782213;79;21719;-81
2022/07/03 09:14:40;;;;;;;7.28;1.70;;;;;;;26.46;31.41;100425.36;1774985;79;21182;-80
2022/07/03 09:17:47;;;;;;;2.10;1.40;;;;;;;26.53;30.58;100424.50;1763403;81;21193;-80
2022/07/03 09:20:53;;;;;;;4.83;1.80;;;;;;;26.57;30.53;100419.19;1770084;81;21158;-80
2022/07/03 09:23:58;;;;;;;2.52;1.57;;;;;;;26.59;30.43;100425.38;1769274;81;21800;-80
2022/07/03 09:27:04;;;;;;;5.60;1.42;;;;;;;26.63;31.15;100432.09;1776786;79;21752;-80
2022/07/03 09:30:15;;;;;;;8.95;1.80;;;;;;;26.61;30.04;100426.77;1770076;81;21177;-80
2022/07/03 09:33:24;;;;;;;2.22;1.40;;;;;;;26.61;30.52;100426.77;1770363;81;21760;-80
2022/07/03 09:36:50;;;;;;;4.47;1.67;;;;;;;26.63;30.60;100424.53;1778618;79;21173;-80
2022/07/03 09:39:58;;;;;;;2.83;1.57;;;;;;;26.70;30.89;100423.68;1770582;81;21236;-80
2022/07/03 09:43:13;;;;;;;3.57;1.80;;;;;;;26.69;30.75;100412.75;1753863;79;21214;-80
2022/07/03 09:46:17;;;;;;;3.77;1.70;;;;;;;26.69;31.45;100406.58;1773527;79;21209;-80
2022/07/03 09:49:24;;;;;;;7.50;1.92;;;;;;;26.80;31.13;100409.38;1776221;81;21188;-80
2022/07/03 09:52:46;;;;;;;11.30;1.62;;;;;;;26.83;30.87;100408.81;1803418;79;21172;-80
2022/07/03 09:55:59;;;;;;;7.00;2.02;;;;;;;26.75;30.98;100410.22;1807365;79;21362;-80
2022/07/03 09:59:18;;;;;;;3.40;1.65;;;;;;;26.72;31.07;100408.83;1793918;79;21220;-80
2022/07/03 10:02:24;;;;;;;2.33;1.77;;;;;;;26.71;31.30;100407.13;1808258;79;21220;-80
2022/07/03 10:05:46;;;;;;;5.65;1.70;;;;;;;26.71;31.54;100395.90;1808350;79;21216;-80
2022/07/03 10:08:52;;;;;;;4.70;1.75;;;;;;;26.76;31.50;100400.67;1807945;79;21192;-80
2022/07/03 10:11:57;;;;;;;6.45;2.12;;;;;;;26.83;30.80;100387.20;1805983;79;21220;-80
2022/07/03 10:15:03;;;;;;;2.40;1.42;;;;;;;26.91;31.01;100389.45;1806577;79;21193;-80
2022/07/03 10:18:09;;;;;;;3.58;1.75;;;;;;;26.99;31.06;100373.98;1808096;79;21188;-80
2022/07/03 10:21:15;;;;;;;5.85;1.65;;;;;;;27.06;31.00;100367.52;1796143;79;21195;-80
2022/07/03 10:24:20;;;;;;;2.52;1.50;;;;;;;27.12;30.91;100370.62;1807025;79;21267;-80
2022/07/03 10:27:33;;;;;;;8.80;2.15;;;;;;;27.11;30.71;100370.91;1807520;79;21189;-81
2022/07/03 10:30:38;;;;;;;5.20;2.15;;;;;;;27.10;29.43;100367.27;1806962;79;21251;-80
2022/07/03 10:33:43;;;;;;;6.60;1.42;;;;;;;27.05;30.17;100363.02;1806935;79;21240;-81
2022/07/03 10:36:49;;;;;;;4.30;1.80;;;;;;;27.08;30.03;100365.83;1807532;79;21185;-81
2022/07/03 10:47:02;;;;;;;5.95;2.40;;;;;;;27.02;29.89;100352.37;1807947;79;21177;-81
2022/07/03 10:50:11;;;;;;;6.55;2.47;;;;;;;27.00;29.59;100344.78;1772825;79;21201;-81
2022/07/03 10:53:31;;;;;;;2.47;1.62;;;;;;;27.05;30.38;100348.14;1769815;81;21186;-80
2022/07/03 10:56:37;;;;;;;6.87;1.95;;;;;;;27.12;30.13;100343.11;1764552;81;21272;-80
2022/07/03 10:59:47;;;;;;;2.35;1.40;;;;;;;27.14;29.77;100359.94;1756300;81;21205;-80
2022/07/03 11:02:56;;;;;;;5.83;1.42;;;;;;;27.10;29.75;100342.01;1770183;81;21755;-80
2022/07/03 11:06:02;;;;;;;;;;;;;;;27.08;29.24;100334.95;1771500;81;21201;-80
2022/07/03 11:09:11;;;;;;;2.90;1.57;;;;;;;27.08;29.50;100345.64;1739736;82;20217;-80
2022/07/03 11:12:16;;;;;;;6.13;1.63;;;;;;;27.13;29.17;100332.99;1738848;82;21807;-80
2022/07/03 11:15:46;;;;;;;2.83;1.90;;;;;;;27.19;29.15;100326.22;1738394;82;21197;-80
2022/07/03 11:18:53;;;;;;;2.83;1.30;;;;;;;27.29;28.99;100332.93;1739952;82;21213;-80
2022/07/03 11:22:00;;;;;;;4.53;1.90;;;;;;;27.34;28.74;100335.18;1700455;82;21764;-80
2022/07/03 11:25:06;;;;;;;5.33;1.70;;;;;;;27.38;28.43;100342.44;1739094;82;21229;-80
2022/07/03 11:28:11;;;;;;;5.03;1.50;;;;;;;27.39;28.25;100323.92;1738204;82;21228;-80
2022/07/03 11:31:23;;;;;;;2.85;1.27;;;;;;;27.38;28.15;100322.22;1738822;82;21172;-80
2022/07/03 11:34:31;;;;;;;3.10;1.30;;;;;;;27.38;28.55;100314.36;1739717;82;21267;-80
2022/07/03 11:37:39;;;;;;;2.65;1.45;;;;;;;27.29;27.95;100322.56;1738223;82;21193;-80
2022/07/03 11:40:40;;;;;;;;;;;;;;;27.27;27.84;100313.58;1718759;82;21193;-82
2022/07/03 11:43:32;;;;;;;2.15;1.40;;;;;;;27.31;28.80;100311.87;1741278;82;20239;-79
2022/07/03 11:46:28;;;;;;;5.37;1.60;;;;;;;27.34;28.64;100313.28;1706027;83;21221;-80
2022/07/03 11:49:32;;;;;;;8.23;1.30;;;;;;;27.37;28.87;100301.45;1687983;82;21280;-79
2022/07/03 11:52:40;;;;;;;10.70;1.92;;;;;;;27.43;29.19;100294.67;1759069;81;21228;-79
2022/07/03 11:56:07;;;;;;;4.37;1.40;;;;;;;27.45;29.12;100298.05;1755948;81;21200;-79
2022/07/03 11:59:07;;;;;;;4.17;1.40;;;;;;;27.47;29.13;100301.40;1756148;81;21220;-79
2022/07/03 12:02:10;;;;;;;3.85;2.58;;;;;;;27.52;28.97;100306.98;1757216;81;21236;-78
2022/07/03 12:04:56;;;;;;;5.85;1.90;;;;;;;27.55;29.07;100299.39;1732465;81;21220;-79
2022/07/03 12:07:49;;;;;;;4.28;1.50;;;;;;;27.57;29.05;100301.91;1758272;81;21188;-79
2022/07/03 12:10:42;;;;;;;6.40;2.07;;;;;;;27.48;28.96;100302.53;1757963;81;21177;-79
2022/07/03 12:13:40;;;;;;;3.52;1.62;;;;;;;27.41;28.99;100314.63;1755280;81;21216;-80
2022/07/03 12:16:34;;;;;;;4.25;1.60;;;;;;;27.43;29.11;100305.91;1756174;81;21223;-80
2022/07/03 12:19:26;;;;;;;5.83;2.10;;;;;;;27.49;28.49;100301.97;1756892;81;21208;-80
2022/07/03 12:22:12;;;;;;;3.17;1.65;;;;;;;27.50;28.05;100298.02;1756432;81;21247;-80
2022/07/03 12:25:21;;;;;;;2.05;1.30;;;;;;;27.47;28.08;100297.19;1756333;81;21192;-79
2022/07/03 12:28:26;;;;;;;3.17;1.70;;;;;;;27.42;27.67;100295.23;1755483;81;21882;-80
2022/07/03 12:31:33;;;;;;;6.45;1.42;;;;;;;27.40;27.81;100299.48;1756640;81;21204;-79
2022/07/03 12:34:38;;;;;;;3.58;1.20;;;;;;;27.38;27.69;100294.70;1756892;81;21192;-79
2022/07/03 12:37:51;;;;;;;7.37;1.70;;;;;;;27.38;27.87;100298.91;1757073;81;21236;-80
2022/07/03 12:41:10;;;;;;;2.05;1.17;;;;;;;27.42;27.96;100297.21;1757076;81;21204;-79
2022/07/03 12:44:20;;;;;;;13.00;1.60;;;;;;;27.46;27.82;100287.09;1755614;81;21236;-80
2022/07/03 12:47:25;;;;;;;7.67;1.30;;;;;;;27.48;28.25;100284.84;1733000;81;21846;-78
2022/07/03 12:50:29;;;;;;;8.78;1.65;;;;;;;27.54;28.31;100282.84;1756505;81;21303;-80
2022/07/03 12:53:38;;;;;;;10.13;1.98;;;;;;;27.60;27.83;100268.46;1756932;81;21201;-79
2022/07/03 12:56:45;;;;;;;4.45;1.22;;;;;;;27.65;28.06;100274.61;1756575;81;21194;-80
2022/07/03 12:59:50;;;;;;;2.45;1.35;;;;;;;27.66;27.63;100272.07;1757310;81;21225;-79
2022/07/03 13:02:57;;;;;;;2.17;1.50;;;;;;;27.64;27.19;100273.78;1757108;81;21194;-79
2022/07/03 13:06:04;;;;;;;2.40;1.37;;;;;;;27.58;27.05;100270.73;1755773;81;21245;-80
2022/07/03 13:09:11;;;;;;;4.33;1.70;;;;;;;27.52;27.04;100264.85;1756784;81;21242;-79
2022/07/03 13:12:17;;;;;;;2.98;1.35;;;;;;;27.51;27.20;100280.03;1756968;81;21186;-79
2022/07/03 13:15:24;;;;;;;1.52;1.10;;;;;;;27.51;26.63;100265.98;1734035;81;22074;-79
2022/07/03 13:18:30;;;;;;;3.35;1.70;;;;;;;27.49;26.80;100264.05;1757686;81;22224;-79
2022/07/03 13:21:36;;;;;;;2.95;1.65;;;;;;;27.47;27.47;100276.12;1757112;81;21238;-80
2022/07/03 13:24:36;;;;;;;2.52;1.22;;;;;;;27.42;27.71;100257.33;1755788;81;21178;-79
2022/07/03 13:27:29;;;;;;;3.20;1.32;;;;;;;27.38;27.61;100273.64;1756197;81;21824;-80
2022/07/03 13:30:36;;;;;;;3.08;1.32;;;;;;;27.34;27.76;100262.17;1716673;81;21186;-80
2022/07/03 13:33:41;;;;;;;2.35;1.27;;;;;;;27.38;27.72;100255.38;1757197;81;21843;-79
2022/07/03 13:36:49;;;;;;;4.70;1.40;;;;;;;27.40;26.06;100262.97;1756784;81;21257;-79
2022/07/03 13:39:55;;;;;;;3.47;1.40;;;;;;;27.38;25.27;100263.23;1757297;81;21209;-79
2022/07/03 13:43:02;;;;;;;5.47;1.95;;;;;;;27.36;26.08;100258.48;1757160;81;21788;-80
2022/07/03 13:46:07;;;;;;;2.05;1.52;;;;;;;27.35;26.55;100258.80;1756758;81;21674;-79
2022/07/03 13:49:12;;;;;;;3.70;1.35;;;;;;;27.34;26.89;100252.91;1757057;81;21194;-80
2022/07/03 13:52:18;;;;;;;3.47;1.42;;;;;;;27.33;27.41;100253.44;1754731;81;21263;-79
2022/07/03 13:55:24;;;;;;;6.10;1.60;;;;;;;27.36;27.44;100252.04;1757221;81;21243;-80
2022/07/03 13:58:29;;;;;;;5.67;1.65;;;;;;;27.36;27.78;100263.27;1755818;81;21815;-79
2022/07/03 14:01:35;;;;;;;2.12;1.40;;;;;;;27.33;27.84;100255.41;1757206;81;21729;-79
2022/07/03 14:04:40;;;;;;;3.10;1.42;;;;;;;27.27;28.32;100253.20;1756529;81;21245;-79
2022/07/03 14:07:48;;;;;;;4.78;1.52;;;;;;;27.21;28.16;100243.97;1755784;81;21278;-79
2022/07/03 14:10:53;;;;;;;5.62;1.60;;;;;;;27.20;28.19;100247.08;1755051;81;21287;-80
2022/07/03 14:14:00;;;;;;;2.98;1.40;;;;;;;27.18;28.33;100243.13;1755661;81;21238;-80
2022/07/03 14:17:07;;;;;;;6.87;1.70;;;;;;;27.16;28.39;100244.56;1755248;81;21225;-80
2022/07/03 14:20:13;;;;;;;5.25;1.67;;;;;;;27.15;28.21;100254.95;1757300;81;21237;-80
2022/07/03 14:23:21;;;;;;;3.20;1.62;;;;;;;27.12;28.20;100247.67;1757029;81;21198;-79
2022/07/03 14:33:15;;;;;;;3.42;1.50;;;;;;;27.08;28.25;100237.57;1757261;81;21189;-80
2022/07/03 14:36:20;;;;;;;3.98;1.60;;;;;;;27.11;27.98;100233.37;1755738;81;21507;-79
2022/07/03 14:39:27;;;;;;;6.20;1.45;;;;;;;27.11;27.99;100243.19;1756138;81;21194;-80
2022/07/03 14:42:32;;;;;;;3.20;1.57;;;;;;;27.13;28.20;100231.09;1748484;81;21232;-80
2022/07/03 14:45:38;;;;;;;7.10;1.62;;;;;;;27.15;27.79;100226.89;1756391;81;21784;-80
2022/07/03 14:48:45;;;;;;;5.12;1.60;;;;;;;27.15;28.55;100228.29;1726133;81;21243;-80